Weichang, China
Current Conditions -  °F | °C
As of 6:00 PM on Thursday 23 Oct 2014 (Local Time) from ZBAA Reporting Station
Haze Haze  
Wind Chill: 13°   Ceiling: Unl
Heat Index: 13°   Visibility: 3mi
Dew Point:   Wind: 0mph
Humidity: 77%   Direction: NA
Pressure: 29.88"   Gusts: NA
Location:  41.93°N, 117.75°E
Report Text: ZBAA 231000Z 00000MPS 5000 HZ NSC 13/09 Q1012 NOSIG
Loading
Personal Weather Stations






























Interactive Weather Map
Tropical Storm Tracking
New forecast layout! Learn more

10-Day Weather Forecast

Advertisements
Track Severe Weather on mobile